Time;durP1;ratioP1;P1;durP2;ratioP2;P2;SDS_P1;SDS_P2;PMS_P1;PMS_P2;Temp;Humidity;BMP_temperature;BMP_pressure;BME280_temperature;BME280_humidity;BME280_pressure;Samples;Min_cycle;Max_cycle;Signal;HPM_P1;HPM_P2
2021/03/16 00:02:24;;;;;;;6.78;2.03;;;6.40;99.90;;;;;;5055356;28;20031;-72
2021/03/16 00:04:49;;;;;;;3.45;2.20;;;6.40;99.90;;;;;;5064315;28;20036;-72
2021/03/16 00:07:16;;;;;;;5.63;2.42;;;6.40;99.90;;;;;;5061790;28;20475;-73
2021/03/16 00:09:42;;;;;;;5.10;2.80;;;6.40;99.90;;;;;;5066811;28;20036;-72
2021/03/16 00:12:08;;;;;;;3.78;2.30;;;6.40;99.90;;;;;;5033258;28;20029;-72
2021/03/16 00:14:34;;;;;;;5.55;2.75;;;6.40;99.90;;;;;;5049275;28;20029;-72
2021/03/16 00:16:59;;;;;;;3.30;2.40;;;6.30;99.90;;;;;;5055440;28;20335;-73
2021/03/16 00:19:27;;;;;;;5.35;2.70;;;6.40;99.90;;;;;;5067397;28;20576;-72
2021/03/16 00:21:53;;;;;;;4.15;2.90;;;6.40;99.90;;;;;;5060929;28;20098;-72
2021/03/16 00:24:18;;;;;;;9.48;3.25;;;6.40;99.90;;;;;;5055262;28;20063;-72
2021/03/16 00:26:43;;;;;;;7.28;3.13;;;6.50;99.90;;;;;;5057677;28;20016;-72
2021/03/16 00:29:09;;;;;;;7.43;2.95;;;6.50;99.90;;;;;;5061152;28;20029;-73
2021/03/16 00:31:35;;;;;;;6.15;2.90;;;6.40;99.90;;;;;;5066267;28;20533;-72
2021/03/16 00:34:00;;;;;;;4.75;3.03;;;6.40;99.90;;;;;;5059778;28;20024;-73
2021/03/16 00:36:26;;;;;;;5.07;2.88;;;6.40;99.90;;;;;;5053004;28;20020;-72
2021/03/16 00:38:52;;;;;;;6.15;2.95;;;6.50;99.90;;;;;;5057604;28;20024;-72
2021/03/16 00:41:17;;;;;;;4.75;2.47;;;6.50;99.90;;;;;;5056545;28;20024;-72
2021/03/16 00:43:43;;;;;;;6.43;2.65;;;6.40;99.90;;;;;;5069741;28;20024;-73
2021/03/16 00:46:09;;;;;;;3.88;2.50;;;6.40;99.90;;;;;;5054445;28;20096;-73
2021/03/16 00:48:34;;;;;;;4.35;2.70;;;6.30;99.90;;;;;;5055809;28;20099;-72
2021/03/16 00:51:03;;;;;;;5.05;2.42;;;6.40;99.90;;;;;;5064772;28;20064;-73
2021/03/16 00:53:29;;;;;;;4.15;2.33;;;6.40;99.90;;;;;;5064953;28;20419;-73
2021/03/16 00:55:54;;;;;;;3.30;1.90;;;6.30;99.90;;;;;;5061438;28;20508;-72
2021/03/16 00:58:30;;;;;;;3.15;2.25;;;6.20;99.90;;;;;;5056779;28;20492;-73
2021/03/16 01:00:56;;;;;;;3.80;1.75;;;6.30;99.90;;;;;;5060084;28;20090;-72
2021/03/16 01:03:23;;;;;;;2.85;1.67;;;6.30;99.90;;;;;;5051973;28;20242;-72
2021/03/16 01:05:49;;;;;;;2.78;2.17;;;6.30;99.90;;;;;;5059086;28;20526;-72
2021/03/16 01:08:16;;;;;;;5.97;2.33;;;6.20;99.90;;;;;;5053375;28;20040;-73
2021/03/16 01:10:42;;;;;;;4.22;2.20;;;6.20;99.90;;;;;;5069648;28;20494;-72
2021/03/16 01:13:08;;;;;;;2.85;1.92;;;6.20;99.90;;;;;;5054952;28;20107;-73
2021/03/16 01:15:33;;;;;;;2.83;1.90;;;6.30;99.90;;;;;;5057323;28;20439;-73
2021/03/16 01:17:59;;;;;;;3.88;1.98;;;6.30;99.90;;;;;;5058523;28;20527;-72
2021/03/16 01:20:26;;;;;;;2.72;2.00;;;6.30;99.90;;;;;;5065598;28;20032;-73
2021/03/16 01:22:52;;;;;;;3.08;1.95;;;6.20;99.90;;;;;;5057393;28;20032;-73
2021/03/16 01:25:17;;;;;;;4.88;2.50;;;6.30;99.90;;;;;;5060667;28;20487;-73
2021/03/16 01:27:43;;;;;;;6.65;2.90;;;6.30;99.90;;;;;;5059579;28;20047;-73
2021/03/16 01:30:09;;;;;;;5.55;2.72;;;6.30;99.90;;;;;;5061133;28;20429;-73
2021/03/16 01:32:35;;;;;;;5.35;2.50;;;6.30;99.90;;;;;;5061427;28;20067;-72
2021/03/16 01:35:02;;;;;;;3.80;2.50;;;6.20;99.90;;;;;;5051320;28;20488;-72
2021/03/16 01:37:28;;;;;;;5.72;2.97;;;6.20;99.90;;;;;;5061358;28;20024;-73
2021/03/16 01:39:54;;;;;;;5.30;2.85;;;6.20;99.90;;;;;;5059663;28;20066;-72
2021/03/16 01:42:19;;;;;;;4.70;2.58;;;6.20;99.90;;;;;;5062588;28;20024;-72
2021/03/16 01:44:45;;;;;;;3.65;2.75;;;6.20;99.90;;;;;;5053819;28;20024;-72
2021/03/16 01:47:13;;;;;;;3.67;2.70;;;6.30;99.90;;;;;;5058266;28;20033;-73
2021/03/16 01:49:39;;;;;;;5.50;2.65;;;6.30;99.90;;;;;;5051171;28;20817;-73
2021/03/16 01:52:05;;;;;;;4.55;2.65;;;6.30;99.90;;;;;;5055010;28;20031;-72
2021/03/16 01:54:31;;;;;;;4.82;2.72;;;6.20;99.90;;;;;;5060312;28;20024;-73
2021/03/16 01:57:00;;;;;;;4.15;2.70;;;6.20;99.90;;;;;;5059578;28;20462;-73
2021/03/16 01:59:27;;;;;;;3.67;2.45;;;6.20;99.90;;;;;;5057956;28;20029;-73
2021/03/16 02:01:52;;;;;;;3.45;2.58;;;6.20;99.90;;;;;;5051696;28;20026;-73
2021/03/16 02:04:18;;;;;;;3.78;2.40;;;6.20;99.90;;;;;;5064443;28;20032;-73
2021/03/16 02:06:50;;;;;;;3.85;2.20;;;6.20;99.90;;;;;;5063994;28;20095;-73
2021/03/16 02:09:38;;;;;;;3.85;2.25;;;6.10;99.90;;;;;;5055593;28;20048;-73
2021/03/16 02:12:54;;;;;;;3.13;2.22;;;6.20;99.90;;;;;;5044725;28;20105;-72
2021/03/16 02:15:29;;;;;;;5.85;2.70;;;6.10;99.90;;;;;;4971005;28;20034;-73
2021/03/16 02:17:58;;;;;;;4.93;2.65;;;6.10;99.90;;;;;;5043168;28;20067;-73
2021/03/16 02:20:45;;;;;;;4.68;2.35;;;6.10;99.90;;;;;;5055580;28;20386;-72
2021/03/16 02:23:18;;;;;;;3.20;1.95;;;6.10;99.90;;;;;;5066007;28;20181;-73
2021/03/16 02:26:05;;;;;;;3.78;1.98;;;6.10;99.90;;;;;;5056849;28;20029;-74
2021/03/16 02:29:00;;;;;;;4.40;2.10;;;6.10;99.90;;;;;;5053822;28;20036;-73
2021/03/16 02:31:27;;;;;;;4.97;2.33;;;6.10;99.90;;;;;;5056514;28;20051;-72
2021/03/16 02:33:55;;;;;;;2.30;2.00;;;6.10;99.90;;;;;;5057117;28;20068;-72
2021/03/16 02:36:21;;;;;;;2.08;1.80;;;6.10;99.90;;;;;;5059707;28;20029;-72
2021/03/16 02:38:50;;;;;;;4.15;2.17;;;6.10;99.90;;;;;;5054572;28;20009;-72
2021/03/16 02:41:18;;;;;;;6.90;2.20;;;6.10;99.90;;;;;;5052801;28;20028;-73
2021/03/16 02:43:44;;;;;;;4.15;2.10;;;6.10;99.90;;;;;;5058638;28;20036;-72
2021/03/16 02:46:10;;;;;;;4.20;2.03;;;6.10;99.90;;;;;;5058397;28;20028;-73
2021/03/16 02:48:36;;;;;;;3.28;1.90;;;6.10;99.90;;;;;;5055715;28;20052;-72
2021/03/16 02:51:03;;;;;;;4.47;2.08;;;6.10;99.90;;;;;;5055591;28;20051;-72
2021/03/16 02:53:32;;;;;;;5.13;1.98;;;6.10;99.90;;;;;;5062045;28;20029;-73
2021/03/16 02:55:59;;;;;;;2.47;2.10;;;6.10;99.90;;;;;;5053545;28;20052;-73
2021/03/16 02:58:26;;;;;;;3.88;2.03;;;6.00;99.90;;;;;;5055693;28;20103;-74
2021/03/16 03:00:52;;;;;;;3.38;1.83;;;6.00;99.90;;;;;;5056967;28;20103;-74
2021/03/16 03:03:20;;;;;;;4.45;1.88;;;6.00;99.90;;;;;;5055646;28;20048;-74
2021/03/16 03:05:47;;;;;;;3.45;1.98;;;6.00;99.90;;;;;;5059592;28;20111;-73
2021/03/16 03:08:14;;;;;;;3.88;1.90;;;5.90;99.90;;;;;;5056574;28;20036;-74
2021/03/16 03:10:39;;;;;;;2.50;1.63;;;5.90;99.90;;;;;;5055373;28;20120;-74
2021/03/16 03:13:05;;;;;;;3.78;2.20;;;5.90;99.90;;;;;;5062800;28;20123;-73
2021/03/16 03:15:31;;;;;;;2.67;2.00;;;6.00;99.90;;;;;;5057570;28;20495;-74
2021/03/16 03:17:58;;;;;;;3.10;2.13;;;6.00;99.90;;;;;;5058336;28;20033;-74
2021/03/16 03:20:23;;;;;;;3.90;1.90;;;5.90;99.90;;;;;;5051430;28;20035;-74
2021/03/16 03:22:55;;;;;;;3.33;2.00;;;5.90;99.90;;;;;;5055161;28;20025;-74
2021/03/16 03:25:25;;;;;;;2.92;1.95;;;5.90;99.90;;;;;;5060491;28;20037;-73
2021/03/16 03:27:56;;;;;;;2.92;1.88;;;5.80;99.90;;;;;;5054612;28;20115;-74
2021/03/16 03:30:23;;;;;;;4.75;2.13;;;5.90;99.90;;;;;;5063400;28;20036;-74
2021/03/16 03:32:50;;;;;;;4.90;2.45;;;5.90;99.90;;;;;;5051620;28;20109;-74
2021/03/16 03:35:18;;;;;;;3.13;1.75;;;5.80;99.90;;;;;;5057614;28;20025;-74
2021/03/16 03:37:48;;;;;;;6.93;2.17;;;5.80;99.90;;;;;;5054527;28;20443;-73
2021/03/16 03:40:14;;;;;;;4.20;2.60;;;5.80;99.90;;;;;;5061207;28;20032;-74
2021/03/16 03:42:41;;;;;;;3.50;2.17;;;5.80;99.90;;;;;;5062374;28;20056;-74
2021/03/16 03:45:07;;;;;;;5.10;2.17;;;5.80;99.90;;;;;;5052279;28;20028;-74
2021/03/16 03:47:35;;;;;;;3.08;2.30;;;5.80;99.90;;;;;;5054706;28;20107;-74
2021/03/16 03:50:02;;;;;;;3.35;2.08;;;5.80;99.90;;;;;;5058327;28;20029;-74
2021/03/16 03:52:29;;;;;;;3.15;2.00;;;5.70;99.90;;;;;;5061355;28;20033;-72
2021/03/16 03:54:55;;;;;;;3.78;2.00;;;5.70;99.90;;;;;;5037507;28;21538;-73
2021/03/16 03:57:21;;;;;;;4.90;2.00;;;5.80;99.90;;;;;;5054221;28;20104;-74
2021/03/16 03:59:47;;;;;;;3.22;2.20;;;5.80;99.90;;;;;;5055325;28;20039;-73
2021/03/16 04:02:14;;;;;;;2.67;1.77;;;5.80;99.90;;;;;;5056502;28;20024;-73
2021/03/16 04:04:40;;;;;;;7.00;2.60;;;5.70;99.90;;;;;;5064534;28;20036;-73
2021/03/16 04:07:09;;;;;;;3.63;2.28;;;5.70;99.90;;;;;;5051764;28;20542;-73
2021/03/16 04:09:35;;;;;;;4.85;2.10;;;5.70;99.90;;;;;;5054646;28;20111;-73
2021/03/16 04:12:02;;;;;;;3.45;2.05;;;5.80;99.90;;;;;;5059861;28;20036;-73
2021/03/16 04:14:29;;;;;;;3.78;1.70;;;5.80;99.90;;;;;;5062789;28;20048;-74
2021/03/16 04:16:55;;;;;;;2.70;1.88;;;5.80;99.90;;;;;;5056846;28;20025;-74
2021/03/16 04:19:23;;;;;;;2.78;1.92;;;5.80;99.90;;;;;;5061921;28;20037;-73
2021/03/16 04:21:49;;;;;;;2.50;1.90;;;5.80;99.90;;;;;;5066479;28;20024;-74
2021/03/16 04:24:15;;;;;;;5.20;1.80;;;5.80;99.90;;;;;;5053106;28;20036;-74
2021/03/16 04:26:41;;;;;;;3.33;2.00;;;5.90;99.90;;;;;;5055714;28;20052;-74
2021/03/16 04:29:06;;;;;;;7.20;3.47;;;5.80;99.90;;;;;;5053893;28;20040;-74
2021/03/16 04:31:32;;;;;;;4.15;2.20;;;5.80;99.90;;;;;;5053949;28;20035;-73
2021/03/16 04:33:57;;;;;;;3.55;1.48;;;5.70;99.90;;;;;;5062796;28;20029;-73
2021/03/16 04:36:23;;;;;;;4.15;1.73;;;5.80;99.90;;;;;;5054840;28;20121;-73
2021/03/16 04:38:48;;;;;;;2.67;1.55;;;5.80;99.90;;;;;;5054160;28;20028;-73
2021/03/16 04:41:14;;;;;;;9.30;1.90;;;5.80;99.90;;;;;;5052476;28;20511;-74
2021/03/16 04:43:42;;;;;;;3.53;2.25;;;5.80;99.90;;;;;;5063259;28;20111;-74
2021/03/16 04:46:11;;;;;;;3.33;1.92;;;5.80;99.90;;;;;;5052507;28;20024;-73
2021/03/16 04:48:36;;;;;;;9.15;2.33;;;5.80;99.90;;;;;;5051432;28;20040;-71
2021/03/16 04:51:02;;;;;;;2.83;1.80;;;5.70;99.90;;;;;;5058165;28;20025;-74
2021/03/16 04:53:27;;;;;;;5.47;2.03;;;5.70;99.90;;;;;;5058637;28;20029;-74
2021/03/16 04:55:53;;;;;;;2.85;2.15;;;5.80;99.90;;;;;;5055934;28;20020;-74
2021/03/16 04:58:18;;;;;;;4.32;2.13;;;5.80;99.90;;;;;;5063550;28;20043;-72
2021/03/16 05:00:44;;;;;;;3.65;1.75;;;5.70;99.90;;;;;;5056239;28;20025;-71
2021/03/16 05:03:09;;;;;;;3.65;2.15;;;5.80;99.90;;;;;;5057462;28;20021;-72
2021/03/16 05:05:35;;;;;;;3.38;2.13;;;5.80;99.90;;;;;;5053526;28;20033;-74
2021/03/16 05:08:00;;;;;;;5.57;2.15;;;5.80;99.90;;;;;;5055018;28;20157;-72
2021/03/16 05:10:26;;;;;;;3.35;2.13;;;5.70;99.90;;;;;;5062752;28;20029;-71
2021/03/16 05:12:52;;;;;;;5.57;2.20;;;5.70;99.90;;;;;;5063143;28;20025;-74
2021/03/16 05:15:17;;;;;;;7.93;1.80;;;5.70;99.90;;;;;;5062852;28;20372;-72
2021/03/16 05:17:43;;;;;;;3.30;1.67;;;5.70;99.90;;;;;;5059782;28;20029;-74
2021/03/16 05:20:09;;;;;;;3.88;1.98;;;5.70;99.90;;;;;;5057813;28;20025;-73
2021/03/16 05:22:34;;;;;;;6.07;1.90;;;5.70;99.90;;;;;;5053449;28;20032;-74
2021/03/16 05:25:05;;;;;;;3.13;1.55;;;5.70;99.90;;;;;;5053045;28;20101;-73
2021/03/16 05:27:30;;;;;;;3.65;1.73;;;5.70;99.90;;;;;;5051768;28;20036;-72
2021/03/16 05:29:56;;;;;;;5.88;1.85;;;5.70;99.90;;;;;;5054104;28;20391;-72
2021/03/16 05:32:30;;;;;;;6.63;1.75;;;5.70;99.90;;;;;;5056421;28;20033;-71
2021/03/16 05:34:56;;;;;;;5.85;1.95;;;5.60;99.90;;;;;;5056620;28;20366;-72
2021/03/16 05:37:21;;;;;;;7.50;1.45;;;5.70;99.90;;;;;;5056632;28;20116;-71
2021/03/16 05:39:47;;;;;;;2.20;1.52;;;5.60;99.90;;;;;;5055827;28;20352;-72
2021/03/16 05:42:15;;;;;;;2.70;1.65;;;5.70;99.90;;;;;;5052968;28;20025;-72
2021/03/16 05:44:42;;;;;;;3.15;1.42;;;5.70;99.90;;;;;;5062641;28;20032;-72
2021/03/16 05:47:12;;;;;;;1.98;1.40;;;5.70;99.90;;;;;;5053392;28;20025;-72
2021/03/16 05:49:40;;;;;;;6.10;1.60;;;5.80;99.90;;;;;;5052516;28;20128;-72
2021/03/16 05:52:08;;;;;;;4.38;1.63;;;5.70;99.90;;;;;;5057204;28;20029;-72
2021/03/16 05:54:34;;;;;;;7.22;1.73;;;5.70;99.90;;;;;;5064107;28;20056;-72
2021/03/16 05:57:00;;;;;;;3.13;1.60;;;5.70;99.90;;;;;;5061229;28;20033;-72
2021/03/16 05:59:26;;;;;;;3.88;1.40;;;5.70;99.90;;;;;;5055855;28;20035;-72
2021/03/16 06:01:52;;;;;;;5.82;2.10;;;5.80;99.90;;;;;;5056108;28;20551;-71
2021/03/16 06:04:18;;;;;;;4.47;1.80;;;5.70;99.90;;;;;;5049776;28;20120;-72
2021/03/16 06:06:43;;;;;;;3.50;1.73;;;5.70;99.90;;;;;;5053807;28;20056;-71
2021/03/16 06:09:09;;;;;;;5.53;1.80;;;5.70;99.90;;;;;;5058496;28;20119;-72
2021/03/16 06:11:34;;;;;;;3.72;1.80;;;5.70;99.90;;;;;;5050868;28;20036;-72
2021/03/16 06:14:00;;;;;;;7.95;1.85;;;5.70;99.90;;;;;;5060443;28;20033;-72
2021/03/16 06:16:25;;;;;;;5.40;2.10;;;5.70;99.90;;;;;;5051865;28;20385;-72
2021/03/16 06:18:51;;;;;;;6.57;2.10;;;5.80;99.90;;;;;;5056641;28;20498;-72
2021/03/16 06:21:21;;;;;;;3.75;1.42;;;5.80;99.90;;;;;;5062029;28;20029;-72
2021/03/16 06:23:52;;;;;;;3.45;1.85;;;5.80;99.90;;;;;;5052252;28;20036;-72
2021/03/16 06:26:18;;;;;;;4.35;1.73;;;5.80;99.90;;;;;;5062306;28;20025;-72
2021/03/16 06:28:44;;;;;;;3.85;1.90;;;5.80;99.90;;;;;;5050483;28;20029;-72
2021/03/16 06:31:19;;;;;;;4.80;2.00;;;5.80;99.90;;;;;;5057016;28;20017;-73
2021/03/16 06:33:45;;;;;;;2.88;1.83;;;5.80;99.90;;;;;;5058741;28;20028;-73
2021/03/16 06:36:11;;;;;;;6.95;1.90;;;5.80;99.90;;;;;;5063306;28;20055;-72
2021/03/16 06:38:38;;;;;;;5.30;2.00;;;5.80;99.90;;;;;;5050220;28;20032;-73
2021/03/16 06:41:16;;;;;;;2.50;1.65;;;5.90;99.90;;;;;;5065271;28;20027;-75
2021/03/16 06:43:51;;;;;;;4.10;2.03;;;5.80;99.90;;;;;;5066604;28;20028;-74
2021/03/16 06:46:32;;;;;;;2.80;2.00;;;5.80;99.90;;;;;;5063353;28;20029;-74
2021/03/16 06:48:58;;;;;;;4.63;1.92;;;5.90;99.90;;;;;;5066776;28;20102;-74
2021/03/16 06:51:27;;;;;;;4.25;2.10;;;5.90;99.90;;;;;;5064092;28;20533;-74
2021/03/16 06:53:53;;;;;;;3.60;1.67;;;6.00;99.90;;;;;;5063428;28;20209;-74
2021/03/16 06:56:29;;;;;;;3.40;1.67;;;5.90;99.90;;;;;;5062405;28;20514;-74
2021/03/16 06:58:55;;;;;;;3.70;1.80;;;5.90;99.90;;;;;;5065468;28;20028;-73
2021/03/16 07:01:20;;;;;;;5.50;2.03;;;5.90;99.90;;;;;;5057610;28;20021;-73
2021/03/16 07:03:47;;;;;;;4.60;2.15;;;5.90;99.90;;;;;;5052148;28;20013;-76
2021/03/16 07:06:18;;;;;;;5.80;2.30;;;5.90;99.90;;;;;;5058035;28;20028;-74
2021/03/16 07:08:45;;;;;;;;;;;6.00;99.90;;;;;;5066578;28;20024;-73
2021/03/16 07:11:13;;;;;;;6.80;2.42;;;6.00;99.90;;;;;;5058579;28;19969;-73
2021/03/16 07:13:42;;;;;;;3.95;2.08;;;6.00;99.90;;;;;;5059230;28;20036;-74
2021/03/16 07:16:11;;;;;;;4.97;2.28;;;6.00;99.90;;;;;;5057088;28;20025;-73
2021/03/16 07:18:44;;;;;;;4.85;1.92;;;6.10;99.90;;;;;;5051432;28;20031;-73
2021/03/16 07:21:18;;;;;;;8.40;2.03;;;6.10;99.90;;;;;;5050711;28;20028;-73
2021/03/16 07:24:06;;;;;;;6.63;1.92;;;6.20;99.90;;;;;;5057151;28;20108;-73
2021/03/16 07:26:32;;;;;;;9.07;2.10;;;6.30;99.90;;;;;;5052649;28;20111;-73
2021/03/16 07:28:58;;;;;;;5.13;1.92;;;6.30;99.90;;;;;;5059820;28;20542;-72
2021/03/16 07:31:25;;;;;;;2.55;2.00;;;6.40;99.90;;;;;;5060633;28;20070;-73
2021/03/16 07:33:52;;;;;;;2.88;1.75;;;6.40;99.90;;;;;;5048048;28;20039;-75
2021/03/16 07:36:17;;;;;;;2.08;1.77;;;6.40;99.90;;;;;;5054155;28;20032;-73
2021/03/16 07:38:44;;;;;;;5.53;1.85;;;6.50;99.90;;;;;;5050711;28;20028;-74
2021/03/16 07:41:16;;;;;;;4.35;1.95;;;6.50;99.90;;;;;;5047051;28;20484;-73
2021/03/16 07:43:41;;;;;;;;;;;6.60;99.90;;;;;;5056207;28;20106;-73
2021/03/16 07:46:15;;;;;;;2.95;1.70;;;6.60;99.90;;;;;;5059477;28;20371;-75
2021/03/16 07:48:47;;;;;;;4.88;1.92;;;6.50;99.90;;;;;;5055388;28;20041;-73
2021/03/16 07:51:15;;;;;;;3.88;2.10;;;6.40;99.90;;;;;;5051500;28;20054;-73
2021/03/16 07:53:41;;;;;;;4.80;2.40;;;6.40;99.90;;;;;;5055380;28;20085;-73
2021/03/16 07:56:08;;;;;;;10.95;2.33;;;6.40;99.90;;;;;;5048893;28;20075;-73
2021/03/16 07:58:44;;;;;;;5.22;2.25;;;6.30;99.90;;;;;;5053515;28;20116;-74
2021/03/16 08:01:09;;;;;;;2.85;1.70;;;6.30;99.90;;;;;;5055234;28;20025;-72
2021/03/16 08:03:35;;;;;;;6.78;1.83;;;6.30;99.90;;;;;;5050443;28;20043;-73
2021/03/16 08:06:01;;;;;;;6.68;2.33;;;6.40;99.90;;;;;;5051561;28;20108;-74
2021/03/16 08:08:40;;;;;;;6.00;2.08;;;6.40;99.90;;;;;;5054759;28;20429;-73
2021/03/16 08:11:12;;;;;;;6.10;2.30;;;6.40;99.90;;;;;;5057286;28;20025;-72
2021/03/16 08:13:40;;;;;;;4.03;2.15;;;6.50;99.90;;;;;;5056469;28;20060;-73
2021/03/16 08:16:12;;;;;;;5.63;2.15;;;6.40;99.90;;;;;;5046256;28;20090;-71
2021/03/16 08:18:38;;;;;;;3.92;1.83;;;6.30;99.90;;;;;;5053155;28;20044;-72
2021/03/16 08:21:07;;;;;;;4.32;1.90;;;6.40;99.90;;;;;;5048974;28;20308;-72
2021/03/16 08:23:33;;;;;;;2.17;1.70;;;6.40;99.90;;;;;;5046760;28;20055;-72
2021/03/16 08:26:00;;;;;;;6.50;2.85;;;6.50;99.90;;;;;;5044560;28;20515;-72
2021/03/16 08:28:26;;;;;;;7.93;2.22;;;6.60;99.90;;;;;;5046683;28;20392;-71
2021/03/16 08:30:53;;;;;;;4.18;2.38;;;6.60;99.90;;;;;;5043800;28;20028;-72
2021/03/16 08:33:20;;;;;;;4.40;1.88;;;6.50;99.90;;;;;;5060338;28;20082;-72
2021/03/16 08:35:54;;;;;;;4.05;1.63;;;6.60;99.90;;;;;;5059110;28;20032;-71
2021/03/16 08:38:23;;;;;;;4.28;1.98;;;6.70;99.90;;;;;;5053208;28;20082;-71
2021/03/16 08:41:01;;;;;;;5.10;2.42;;;6.70;99.90;;;;;;5048828;28;20036;-72
2021/03/16 08:43:26;;;;;;;4.65;1.88;;;6.70;99.90;;;;;;5048922;28;20032;-72
2021/03/16 08:45:52;;;;;;;3.75;2.03;;;6.80;99.90;;;;;;5064616;28;20021;-71
2021/03/16 08:48:27;;;;;;;6.35;1.85;;;6.90;99.90;;;;;;5058327;28;20095;-72
2021/03/16 08:50:56;;;;;;;6.43;2.05;;;6.90;99.90;;;;;;5047529;28;20758;-72
2021/03/16 08:53:22;;;;;;;3.80;2.00;;;7.00;99.90;;;;;;5058820;28;20028;-71
2021/03/16 08:55:52;;;;;;;5.28;1.88;;;7.10;99.90;;;;;;5064336;28;20026;-71
2021/03/16 08:58:20;;;;;;;1.75;1.60;;;7.10;99.90;;;;;;5076396;28;20482;-71
2021/03/16 09:00:46;;;;;;;7.60;1.70;;;7.20;99.90;;;;;;5059042;28;20031;-73
2021/03/16 09:03:12;;;;;;;1.75;1.35;;;7.10;99.90;;;;;;5055213;28;20025;-72
2021/03/16 09:05:38;;;;;;;4.50;1.67;;;7.10;99.90;;;;;;5051260;28;20573;-72
2021/03/16 09:08:05;;;;;;;2.08;1.88;;;7.10;99.90;;;;;;5052683;28;20028;-73
2021/03/16 09:10:31;;;;;;;2.67;1.98;;;7.20;99.90;;;;;;5053423;28;20033;-73
2021/03/16 09:12:57;;;;;;;1.73;1.48;;;7.20;99.90;;;;;;5046590;28;20032;-73
2021/03/16 09:15:30;;;;;;;2.67;1.80;;;7.10;99.90;;;;;;5048769;28;20025;-71
2021/03/16 09:17:59;;;;;;;4.53;1.80;;;7.20;99.90;;;;;;5054113;28;20029;-72
2021/03/16 09:20:39;;;;;;;5.13;2.08;;;7.20;99.90;;;;;;5051134;28;20103;-71
2021/03/16 09:23:07;;;;;;;2.30;1.80;;;7.30;99.90;;;;;;5057127;28;20021;-72
2021/03/16 09:25:35;;;;;;;2.55;1.52;;;7.40;99.90;;;;;;5058197;28;20086;-73
2021/03/16 09:28:02;;;;;;;4.72;1.40;;;7.40;99.90;;;;;;5050378;28;20483;-72
2021/03/16 09:30:30;;;;;;;2.70;1.83;;;7.50;99.80;;;;;;5054052;28;20397;-72
2021/03/16 09:32:56;;;;;;;5.30;2.92;;;7.40;99.90;;;;;;5054524;28;20716;-71
2021/03/16 09:35:22;;;;;;;2.20;1.90;;;7.30;99.90;;;;;;5045398;28;20060;-72
2021/03/16 09:37:50;;;;;;;5.78;1.90;;;7.60;99.90;;;;;;5050894;28;20044;-73
2021/03/16 09:40:16;;;;;;;4.75;1.92;;;7.80;99.60;;;;;;5051610;28;20029;-73
2021/03/16 09:42:46;;;;;;;4.10;2.65;;;7.80;98.20;;;;;;5046832;28;20032;-72
2021/03/16 09:45:26;;;;;;;2.72;1.60;;;7.80;98.50;;;;;;5054239;28;20028;-72
2021/03/16 09:47:52;;;;;;;2.00;1.43;;;7.90;96.90;;;;;;5052964;28;20099;-72
2021/03/16 09:50:29;;;;;;;3.60;1.33;;;8.00;96.70;;;;;;5046520;28;20079;-74
2021/03/16 09:53:00;;;;;;;3.63;1.60;;;7.90;95.60;;;;;;5047514;28;20513;-72
2021/03/16 09:55:27;;;;;;;2.47;1.42;;;8.00;96.20;;;;;;5044561;28;20032;-72
2021/03/16 09:57:53;;;;;;;3.95;1.70;;;8.20;96.80;;;;;;5044296;28;20041;-74
2021/03/16 10:00:20;;;;;;;7.43;1.70;;;8.20;96.00;;;;;;5041162;28;20146;-75
2021/03/16 10:02:46;;;;;;;5.78;1.80;;;8.10;95.80;;;;;;5053864;28;20020;-73
2021/03/16 10:05:16;;;;;;;3.50;1.70;;;8.20;95.10;;;;;;5051841;28;20095;-73
2021/03/16 10:07:49;;;;;;;1.65;1.23;;;8.40;96.70;;;;;;5049482;28;20029;-73
2021/03/16 10:10:20;;;;;;;1.92;1.30;;;8.40;94.50;;;;;;5048811;28;20499;-72
2021/03/16 10:12:52;;;;;;;;;;;8.50;95.20;;;;;;5044854;28;20115;-72
2021/03/16 10:15:34;;;;;;;1.80;1.02;;;8.60;92.70;;;;;;5047550;28;19913;-72
2021/03/16 10:18:02;;;;;;;3.67;1.10;;;8.70;94.70;;;;;;5044745;28;20086;-72
2021/03/16 10:20:37;;;;;;;2.38;1.50;;;8.70;93.70;;;;;;5042045;28;20048;-72
2021/03/16 10:23:09;;;;;;;3.33;1.33;;;8.70;92.60;;;;;;5056604;28;20036;-73
2021/03/16 10:25:36;;;;;;;1.38;0.85;;;8.80;93.20;;;;;;5044408;28;20037;-73
2021/03/16 10:28:04;;;;;;;1.95;1.30;;;8.80;92.90;;;;;;5063156;28;20790;-72
2021/03/16 10:30:42;;;;;;;1.60;1.20;;;8.90;91.70;;;;;;5051204;28;20041;-71
2021/03/16 10:33:09;;;;;;;6.47;1.45;;;8.70;91.10;;;;;;5062406;28;20034;-72
2021/03/16 10:35:37;;;;;;;4.93;1.40;;;8.60;91.60;;;;;;5056475;28;20025;-72
2021/03/16 10:38:03;;;;;;;3.15;1.48;;;8.60;92.80;;;;;;5046261;28;20059;-72
2021/03/16 10:40:30;;;;;;;3.05;1.33;;;8.80;93.30;;;;;;5053016;28;20017;-72
2021/03/16 10:42:56;;;;;;;4.82;1.30;;;8.90;94.00;;;;;;5053271;28;20069;-72
2021/03/16 10:45:21;;;;;;;6.38;1.40;;;9.00;92.10;;;;;;5049906;28;20104;-72
2021/03/16 10:47:47;;;;;;;2.38;1.30;;;9.10;91.50;;;;;;5048712;28;20074;-72
2021/03/16 10:50:16;;;;;;;1.38;1.00;;;9.20;88.80;;;;;;5051346;28;20040;-72
2021/03/16 10:52:44;;;;;;;1.17;1.00;;;9.60;88.40;;;;;;5055034;28;20499;-71
2021/03/16 10:55:11;;;;;;;3.67;1.33;;;9.60;85.00;;;;;;5048213;28;20480;-71
2021/03/16 10:57:37;;;;;;;5.78;1.17;;;9.70;81.30;;;;;;5049092;28;20049;-72
2021/03/16 11:00:04;;;;;;;1.63;0.80;;;9.80;79.70;;;;;;5039773;28;20028;-72
2021/03/16 11:02:30;;;;;;;1.92;0.90;;;9.80;82.80;;;;;;5039813;28;20139;-72
2021/03/16 11:04:56;;;;;;;2.20;0.98;;;10.00;80.00;;;;;;5046526;28;20498;-72
2021/03/16 11:07:21;;;;;;;3.08;0.93;;;10.10;82.20;;;;;;5050051;28;20031;-72
2021/03/16 11:09:47;;;;;;;2.67;0.82;;;10.50;80.00;;;;;;5043250;28;20024;-72
2021/03/16 11:12:13;;;;;;;1.30;1.00;;;10.40;76.40;;;;;;5049392;28;20040;-72
2021/03/16 11:14:39;;;;;;;1.00;0.90;;;10.20;74.50;;;;;;5059057;28;20116;-71
2021/03/16 11:17:07;;;;;;;2.00;1.17;;;9.90;78.00;;;;;;5058575;28;20086;-71
2021/03/16 11:19:33;;;;;;;1.92;1.10;;;9.80;77.80;;;;;;5044276;28;20094;-71
2021/03/16 11:21:59;;;;;;;1.40;1.10;;;9.60;80.50;;;;;;5050049;28;20115;-72
2021/03/16 11:24:24;;;;;;;2.75;1.30;;;9.50;81.50;;;;;;5048401;28;20112;-72
2021/03/16 11:26:50;;;;;;;1.35;1.00;;;9.40;83.10;;;;;;5041460;28;20033;-72
2021/03/16 11:29:16;;;;;;;1.75;1.23;;;9.20;83.90;;;;;;5046513;28;20021;-71
2021/03/16 11:31:48;;;;;;;1.60;1.20;;;9.30;83.10;;;;;;5053512;28;20089;-72
2021/03/16 11:34:13;;;;;;;2.72;1.38;;;9.30;82.80;;;;;;5052043;28;20028;-72
2021/03/16 11:36:39;;;;;;;1.73;1.25;;;9.70;82.50;;;;;;5056154;28;20036;-72
2021/03/16 11:39:05;;;;;;;2.58;1.48;;;9.80;81.50;;;;;;5046131;28;20025;-71
2021/03/16 11:41:30;;;;;;;1.83;1.25;;;9.80;80.20;;;;;;5048212;28;20099;-72
2021/03/16 11:43:59;;;;;;;2.85;1.23;;;9.80;80.20;;;;;;5033343;28;20035;-72
2021/03/16 11:46:25;;;;;;;1.25;1.10;;;9.60;79.20;;;;;;5054338;28;20024;-72
2021/03/16 11:48:50;;;;;;;2.80;1.55;;;9.40;81.40;;;;;;5039124;28;20048;-72
2021/03/16 11:51:18;;;;;;;3.70;1.10;;;9.20;81.50;;;;;;5057713;28;20515;-72
2021/03/16 11:53:47;;;;;;;3.80;1.45;;;9.30;81.50;;;;;;5059839;28;20025;-72
2021/03/16 11:56:12;;;;;;;1.60;1.05;;;9.30;81.50;;;;;;5056088;28;20400;-72
2021/03/16 11:58:38;;;;;;;2.47;1.20;;;9.10;82.10;;;;;;5057584;28;20479;-72
2021/03/16 12:01:07;;;;;;;4.40;1.30;;;9.20;81.00;;;;;;5046076;28;20036;-72
2021/03/16 12:03:34;;;;;;;1.45;1.02;;;9.00;82.00;;;;;;5051142;28;20479;-71
2021/03/16 12:06:00;;;;;;;2.97;1.17;;;9.00;82.90;;;;;;5054676;28;20463;-71
2021/03/16 12:08:26;;;;;;;2.47;1.10;;;8.90;84.10;;;;;;5040478;28;20036;-72
2021/03/16 12:10:51;;;;;;;5.53;1.13;;;9.00;83.90;;;;;;5039317;28;20029;-72
2021/03/16 12:13:17;;;;;;;4.13;1.40;;;9.00;83.80;;;;;;5051159;28;20077;-71
2021/03/16 12:15:46;;;;;;;2.10;1.23;;;9.20;83.50;;;;;;5058430;28;20060;-72
2021/03/16 12:18:12;;;;;;;1.65;1.10;;;9.50;82.80;;;;;;5056525;28;20024;-71
2021/03/16 12:20:40;;;;;;;2.20;1.33;;;9.60;80.60;;;;;;5051186;28;20047;-74
2021/03/16 12:23:09;;;;;;;2.88;1.27;;;9.60;79.50;;;;;;5043059;28;20027;-73
2021/03/16 12:25:34;;;;;;;4.55;1.30;;;9.60;81.90;;;;;;5042298;28;20564;-72
2021/03/16 12:28:00;;;;;;;3.20;1.20;;;9.50;81.10;;;;;;5059293;28;20032;-72
2021/03/16 12:30:26;;;;;;;2.15;1.48;;;9.40;82.80;;;;;;5066522;28;20025;-73
2021/03/16 12:32:51;;;;;;;4.25;1.45;;;9.20;80.80;;;;;;5063843;28;20394;-72
2021/03/16 12:35:17;;;;;;;6.10;1.70;;;9.20;82.80;;;;;;5063439;28;20029;-72
2021/03/16 12:37:43;;;;;;;2.67;1.33;;;9.10;81.20;;;;;;5046551;28;20025;-73
2021/03/16 12:40:11;;;;;;;3.13;1.60;;;9.10;83.40;;;;;;5051075;28;20041;-73
2021/03/16 12:42:37;;;;;;;2.53;1.33;;;9.40;85.50;;;;;;5054197;28;20039;-72
2021/03/16 12:45:04;;;;;;;4.18;1.20;;;9.80;81.60;;;;;;5057221;28;20024;-73
2021/03/16 12:47:33;;;;;;;2.38;1.20;;;10.40;79.50;;;;;;5053292;28;20037;-73
2021/03/16 12:49:58;;;;;;;7.68;1.52;;;11.10;72.90;;;;;;5041729;28;20037;-73
2021/03/16 12:52:24;;;;;;;2.13;1.10;;;11.80;69.10;;;;;;5043175;28;20024;-73
2021/03/16 12:54:50;;;;;;;1.33;1.10;;;11.80;70.10;;;;;;5054615;28;20024;-73
2021/03/16 12:57:17;;;;;;;3.40;1.63;;;11.50;67.90;;;;;;5062368;28;20024;-72
2021/03/16 12:59:49;;;;;;;6.88;1.50;;;11.00;71.60;;;;;;5060928;28;20086;-73
2021/03/16 13:02:15;;;;;;;3.03;1.13;;;10.80;74.80;;;;;;5051971;28;20025;-72